sensor_id;sensor_type;location;lat;lon;timestamp;P1;durP1;ratioP1;P2;durP2;ratioP2
5979;SDS011;3016;50.308;8.258;2023-01-09T00:01:27;19.50;;;9.80;;
5979;SDS011;3016;50.308;8.258;2023-01-09T00:04:33;18.53;;;8.43;;
5979;SDS011;3016;50.308;8.258;2023-01-09T00:07:34;19.77;;;9.60;;
5979;SDS011;3016;50.308;8.258;2023-01-09T00:10:35;17.50;;;8.03;;
5979;SDS011;3016;50.308;8.258;2023-01-09T00:13:36;18.30;;;8.50;;
5979;SDS011;3016;50.308;8.258;2023-01-09T00:16:37;17.27;;;8.03;;
5979;SDS011;3016;50.308;8.258;2023-01-09T00:19:38;17.50;;;7.20;;
5979;SDS011;3016;50.308;8.258;2023-01-09T00:22:39;16.20;;;5.90;;
5979;SDS011;3016;50.308;8.258;2023-01-09T00:25:40;15.40;;;6.20;;
5979;SDS011;3016;50.308;8.258;2023-01-09T00:28:41;15.37;;;5.87;;
5979;SDS011;3016;50.308;8.258;2023-01-09T00:31:43;14.50;;;4.90;;
5979;SDS011;3016;50.308;8.258;2023-01-09T00:34:43;13.63;;;4.50;;
5979;SDS011;3016;50.308;8.258;2023-01-09T00:37:44;13.50;;;4.53;;
5979;SDS011;3016;50.308;8.258;2023-01-09T00:40:45;13.67;;;5.33;;
5979;SDS011;3016;50.308;8.258;2023-01-09T00:43:48;12.90;;;4.23;;
5979;SDS011;3016;50.308;8.258;2023-01-09T00:46:54;12.03;;;3.60;;
5979;SDS011;3016;50.308;8.258;2023-01-09T00:50:06;10.83;;;2.80;;
5979;SDS011;3016;50.308;8.258;2023-01-09T00:53:14;12.00;;;3.70;;
5979;SDS011;3016;50.308;8.258;2023-01-09T00:56:18;11.20;;;2.87;;
5979;SDS011;3016;50.308;8.258;2023-01-09T00:59:21;10.80;;;2.50;;
5979;SDS011;3016;50.308;8.258;2023-01-09T01:02:22;11.47;;;2.83;;
5979;SDS011;3016;50.308;8.258;2023-01-09T01:05:23;11.33;;;2.57;;
5979;SDS011;3016;50.308;8.258;2023-01-09T01:08:43;12.60;;;2.60;;
5979;SDS011;3016;50.308;8.258;2023-01-09T01:11:45;11.60;;;2.80;;
5979;SDS011;3016;50.308;8.258;2023-01-09T01:14:46;11.80;;;2.60;;
5979;SDS011;3016;50.308;8.258;2023-01-09T01:17:46;11.30;;;2.53;;
5979;SDS011;3016;50.308;8.258;2023-01-09T01:20:47;11.50;;;2.90;;
5979;SDS011;3016;50.308;8.258;2023-01-09T01:23:50;12.17;;;2.10;;
5979;SDS011;3016;50.308;8.258;2023-01-09T01:26:51;12.80;;;1.90;;
5979;SDS011;3016;50.308;8.258;2023-01-09T01:29:52;11.80;;;1.80;;
5979;SDS011;3016;50.308;8.258;2023-01-09T01:32:52;11.70;;;1.53;;
5979;SDS011;3016;50.308;8.258;2023-01-09T01:36:03;11.73;;;1.30;;
5979;SDS011;3016;50.308;8.258;2023-01-09T01:39:07;12.70;;;1.40;;
5979;SDS011;3016;50.308;8.258;2023-01-09T01:42:08;12.90;;;1.30;;
5979;SDS011;3016;50.308;8.258;2023-01-09T01:45:17;11.97;;;1.30;;
5979;SDS011;3016;50.308;8.258;2023-01-09T01:48:23;12.10;;;1.30;;
5979;SDS011;3016;50.308;8.258;2023-01-09T01:51:27;12.20;;;1.23;;
5979;SDS011;3016;50.308;8.258;2023-01-09T01:54:30;12.33;;;1.30;;
5979;SDS011;3016;50.308;8.258;2023-01-09T01:57:32;12.27;;;1.40;;
5979;SDS011;3016;50.308;8.258;2023-01-09T02:00:37;13.27;;;1.30;;
5979;SDS011;3016;50.308;8.258;2023-01-09T02:03:41;13.10;;;1.40;;
5979;SDS011;3016;50.308;8.258;2023-01-09T02:06:43;12.33;;;1.23;;
5979;SDS011;3016;50.308;8.258;2023-01-09T02:09:48;12.70;;;1.20;;
5979;SDS011;3016;50.308;8.258;2023-01-09T02:12:49;13.03;;;1.33;;
5979;SDS011;3016;50.308;8.258;2023-01-09T02:15:55;12.87;;;1.33;;
5979;SDS011;3016;50.308;8.258;2023-01-09T02:40:34;12.67;;;1.00;;
5979;SDS011;3016;50.308;8.258;2023-01-09T02:44:00;13.50;;;1.20;;
5979;SDS011;3016;50.308;8.258;2023-01-09T02:50:21;12.80;;;1.03;;
5979;SDS011;3016;50.308;8.258;2023-01-09T02:53:43;12.63;;;1.10;;
5979;SDS011;3016;50.308;8.258;2023-01-09T02:57:09;12.53;;;1.00;;
5979;SDS011;3016;50.308;8.258;2023-01-09T03:10:31;12.87;;;1.20;;
5979;SDS011;3016;50.308;8.258;2023-01-09T03:13:52;13.77;;;1.00;;
5979;SDS011;3016;50.308;8.258;2023-01-09T03:16:56;12.27;;;1.20;;
5979;SDS011;3016;50.308;8.258;2023-01-09T03:20:03;13.10;;;1.00;;
5979;SDS011;3016;50.308;8.258;2023-01-09T03:23:07;13.10;;;1.30;;
5979;SDS011;3016;50.308;8.258;2023-01-09T03:26:09;12.30;;;1.10;;
5979;SDS011;3016;50.308;8.258;2023-01-09T03:29:11;13.43;;;1.23;;
5979;SDS011;3016;50.308;8.258;2023-01-09T03:32:11;12.13;;;1.10;;
5979;SDS011;3016;50.308;8.258;2023-01-09T03:35:12;12.60;;;1.10;;
5979;SDS011;3016;50.308;8.258;2023-01-09T03:38:13;12.13;;;1.00;;
5979;SDS011;3016;50.308;8.258;2023-01-09T03:41:14;12.33;;;1.00;;
5979;SDS011;3016;50.308;8.258;2023-01-09T03:44:15;12.23;;;1.00;;
5979;SDS011;3016;50.308;8.258;2023-01-09T03:47:16;12.47;;;1.10;;
5979;SDS011;3016;50.308;8.258;2023-01-09T03:50:17;12.57;;;1.20;;
5979;SDS011;3016;50.308;8.258;2023-01-09T03:53:18;12.50;;;1.00;;
5979;SDS011;3016;50.308;8.258;2023-01-09T03:56:20;13.20;;;1.30;;
5979;SDS011;3016;50.308;8.258;2023-01-09T03:59:21;12.73;;;1.20;;
5979;SDS011;3016;50.308;8.258;2023-01-09T04:02:23;12.63;;;0.90;;
5979;SDS011;3016;50.308;8.258;2023-01-09T04:05:25;12.67;;;1.00;;
5979;SDS011;3016;50.308;8.258;2023-01-09T04:08:27;13.03;;;1.20;;
5979;SDS011;3016;50.308;8.258;2023-01-09T04:11:29;13.90;;;1.00;;
5979;SDS011;3016;50.308;8.258;2023-01-09T04:14:30;13.80;;;1.30;;
5979;SDS011;3016;50.308;8.258;2023-01-09T04:17:31;13.37;;;1.23;;
5979;SDS011;3016;50.308;8.258;2023-01-09T04:20:33;16.37;;;1.27;;
5979;SDS011;3016;50.308;8.258;2023-01-09T04:23:34;13.47;;;1.00;;
5979;SDS011;3016;50.308;8.258;2023-01-09T04:26:35;14.10;;;1.40;;
5979;SDS011;3016;50.308;8.258;2023-01-09T04:29:35;14.07;;;1.20;;
5979;SDS011;3016;50.308;8.258;2023-01-09T04:32:36;15.23;;;1.60;;
5979;SDS011;3016;50.308;8.258;2023-01-09T04:35:37;14.57;;;1.60;;
5979;SDS011;3016;50.308;8.258;2023-01-09T04:38:37;13.83;;;1.10;;
5979;SDS011;3016;50.308;8.258;2023-01-09T04:41:38;13.40;;;0.93;;
5979;SDS011;3016;50.308;8.258;2023-01-09T04:44:53;13.67;;;1.07;;
5979;SDS011;3016;50.308;8.258;2023-01-09T04:47:54;13.67;;;1.07;;
5979;SDS011;3016;50.308;8.258;2023-01-09T04:50:55;13.63;;;1.00;;
5979;SDS011;3016;50.308;8.258;2023-01-09T04:53:55;13.60;;;1.00;;
5979;SDS011;3016;50.308;8.258;2023-01-09T04:56:56;14.57;;;1.10;;
5979;SDS011;3016;50.308;8.258;2023-01-09T04:59:57;13.90;;;1.00;;
5979;SDS011;3016;50.308;8.258;2023-01-09T05:02:57;14.83;;;1.20;;
5979;SDS011;3016;50.308;8.258;2023-01-09T05:05:58;14.03;;;1.30;;
5979;SDS011;3016;50.308;8.258;2023-01-09T05:08:59;14.70;;;1.50;;
5979;SDS011;3016;50.308;8.258;2023-01-09T05:12:01;15.53;;;1.83;;
5979;SDS011;3016;50.308;8.258;2023-01-09T05:15:08;14.20;;;1.60;;
5979;SDS011;3016;50.308;8.258;2023-01-09T05:18:12;14.27;;;1.57;;
5979;SDS011;3016;50.308;8.258;2023-01-09T05:21:13;18.50;;;2.10;;
5979;SDS011;3016;50.308;8.258;2023-01-09T05:24:15;23.00;;;2.27;;
5979;SDS011;3016;50.308;8.258;2023-01-09T05:27:16;15.47;;;1.50;;
5979;SDS011;3016;50.308;8.258;2023-01-09T05:30:17;16.10;;;1.30;;
5979;SDS011;3016;50.308;8.258;2023-01-09T05:33:19;14.87;;;1.80;;
5979;SDS011;3016;50.308;8.258;2023-01-09T05:36:20;15.80;;;2.00;;
5979;SDS011;3016;50.308;8.258;2023-01-09T05:39:20;15.10;;;1.40;;
5979;SDS011;3016;50.308;8.258;2023-01-09T05:42:21;15.87;;;2.23;;
5979;SDS011;3016;50.308;8.258;2023-01-09T05:45:22;15.43;;;2.07;;
5979;SDS011;3016;50.308;8.258;2023-01-09T05:48:22;15.53;;;1.43;;
5979;SDS011;3016;50.308;8.258;2023-01-09T05:51:23;15.00;;;1.70;;
5979;SDS011;3016;50.308;8.258;2023-01-09T05:54:24;15.53;;;1.50;;
5979;SDS011;3016;50.308;8.258;2023-01-09T05:57:25;15.00;;;1.67;;
5979;SDS011;3016;50.308;8.258;2023-01-09T06:00:27;15.00;;;2.17;;
5979;SDS011;3016;50.308;8.258;2023-01-09T06:03:28;15.00;;;1.90;;
5979;SDS011;3016;50.308;8.258;2023-01-09T06:06:29;14.23;;;1.50;;
5979;SDS011;3016;50.308;8.258;2023-01-09T06:09:29;15.37;;;1.70;;
5979;SDS011;3016;50.308;8.258;2023-01-09T06:12:30;15.50;;;1.77;;
5979;SDS011;3016;50.308;8.258;2023-01-09T06:15:31;14.53;;;1.90;;
5979;SDS011;3016;50.308;8.258;2023-01-09T06:18:32;16.03;;;2.20;;
5979;SDS011;3016;50.308;8.258;2023-01-09T06:21:33;15.13;;;1.87;;
5979;SDS011;3016;50.308;8.258;2023-01-09T06:24:33;15.00;;;2.00;;
5979;SDS011;3016;50.308;8.258;2023-01-09T06:27:34;15.93;;;1.60;;
5979;SDS011;3016;50.308;8.258;2023-01-09T06:30:35;14.70;;;1.87;;
5979;SDS011;3016;50.308;8.258;2023-01-09T06:33:36;14.77;;;1.93;;
5979;SDS011;3016;50.308;8.258;2023-01-09T06:36:36;15.43;;;1.93;;
5979;SDS011;3016;50.308;8.258;2023-01-09T06:39:37;15.20;;;1.57;;
5979;SDS011;3016;50.308;8.258;2023-01-09T06:42:45;16.77;;;1.93;;
5979;SDS011;3016;50.308;8.258;2023-01-09T06:45:46;15.77;;;1.83;;
5979;SDS011;3016;50.308;8.258;2023-01-09T06:48:47;16.67;;;2.53;;
5979;SDS011;3016;50.308;8.258;2023-01-09T06:51:51;17.77;;;2.03;;
5979;SDS011;3016;50.308;8.258;2023-01-09T06:54:52;16.40;;;2.13;;
5979;SDS011;3016;50.308;8.258;2023-01-09T06:57:53;19.00;;;2.57;;
5979;SDS011;3016;50.308;8.258;2023-01-09T07:00:54;16.10;;;2.00;;
5979;SDS011;3016;50.308;8.258;2023-01-09T07:03:55;19.43;;;2.30;;
5979;SDS011;3016;50.308;8.258;2023-01-09T07:06:55;16.40;;;2.00;;
5979;SDS011;3016;50.308;8.258;2023-01-09T07:09:56;17.00;;;1.97;;
5979;SDS011;3016;50.308;8.258;2023-01-09T07:12:57;20.40;;;1.80;;
5979;SDS011;3016;50.308;8.258;2023-01-09T07:15:57;17.90;;;2.53;;
5979;SDS011;3016;50.308;8.258;2023-01-09T07:18:58;20.43;;;2.30;;
5979;SDS011;3016;50.308;8.258;2023-01-09T07:21:59;17.37;;;1.90;;
5979;SDS011;3016;50.308;8.258;2023-01-09T07:25:00;15.80;;;1.97;;
5979;SDS011;3016;50.308;8.258;2023-01-09T07:28:02;17.27;;;1.90;;
5979;SDS011;3016;50.308;8.258;2023-01-09T07:31:03;21.13;;;2.20;;
5979;SDS011;3016;50.308;8.258;2023-01-09T07:34:06;19.10;;;2.47;;
5979;SDS011;3016;50.308;8.258;2023-01-09T07:37:07;17.30;;;1.90;;
5979;SDS011;3016;50.308;8.258;2023-01-09T07:40:08;15.57;;;1.67;;
5979;SDS011;3016;50.308;8.258;2023-01-09T07:43:10;16.90;;;1.90;;
5979;SDS011;3016;50.308;8.258;2023-01-09T07:46:11;16.63;;;1.97;;
5979;SDS011;3016;50.308;8.258;2023-01-09T07:49:21;25.20;;;1.93;;
5979;SDS011;3016;50.308;8.258;2023-01-09T07:52:39;16.40;;;1.70;;
5979;SDS011;3016;50.308;8.258;2023-01-09T07:55:44;15.70;;;1.70;;
5979;SDS011;3016;50.308;8.258;2023-01-09T07:58:46;16.37;;;1.80;;
5979;SDS011;3016;50.308;8.258;2023-01-09T08:01:56;19.10;;;1.90;;
5979;SDS011;3016;50.308;8.258;2023-01-09T08:04:58;17.80;;;2.00;;
5979;SDS011;3016;50.308;8.258;2023-01-09T08:08:13;20.20;;;2.00;;
5979;SDS011;3016;50.308;8.258;2023-01-09T08:11:31;16.13;;;1.70;;
5979;SDS011;3016;50.308;8.258;2023-01-09T08:14:36;17.07;;;1.70;;
5979;SDS011;3016;50.308;8.258;2023-01-09T08:17:42;20.07;;;2.70;;
5979;SDS011;3016;50.308;8.258;2023-01-09T08:20:47;15.97;;;1.40;;
5979;SDS011;3016;50.308;8.258;2023-01-09T08:23:49;15.80;;;1.73;;
5979;SDS011;3016;50.308;8.258;2023-01-09T08:26:55;19.73;;;1.80;;
5979;SDS011;3016;50.308;8.258;2023-01-09T08:29:59;16.70;;;1.40;;
5979;SDS011;3016;50.308;8.258;2023-01-09T08:33:06;16.87;;;1.90;;
5979;SDS011;3016;50.308;8.258;2023-01-09T08:36:08;15.90;;;1.70;;
5979;SDS011;3016;50.308;8.258;2023-01-09T08:39:16;19.53;;;1.63;;
5979;SDS011;3016;50.308;8.258;2023-01-09T08:42:18;16.40;;;1.90;;
5979;SDS011;3016;50.308;8.258;2023-01-09T08:45:38;15.33;;;1.40;;
5979;SDS011;3016;50.308;8.258;2023-01-09T08:48:58;15.93;;;1.57;;
5979;SDS011;3016;50.308;8.258;2023-01-09T08:51:59;16.47;;;2.00;;
5979;SDS011;3016;50.308;8.258;2023-01-09T08:55:01;16.93;;;1.50;;
5979;SDS011;3016;50.308;8.258;2023-01-09T08:58:02;16.27;;;1.83;;
5979;SDS011;3016;50.308;8.258;2023-01-09T09:01:04;15.77;;;1.40;;
5979;SDS011;3016;50.308;8.258;2023-01-09T09:04:06;17.77;;;1.50;;
5979;SDS011;3016;50.308;8.258;2023-01-09T09:07:10;16.93;;;3.10;;
5979;SDS011;3016;50.308;8.258;2023-01-09T09:10:12;17.10;;;1.70;;
5979;SDS011;3016;50.308;8.258;2023-01-09T09:13:14;16.60;;;1.60;;
5979;SDS011;3016;50.308;8.258;2023-01-09T09:16:25;16.70;;;1.63;;
5979;SDS011;3016;50.308;8.258;2023-01-09T09:19:27;15.67;;;1.50;;
5979;SDS011;3016;50.308;8.258;2023-01-09T09:22:28;15.80;;;1.30;;
5979;SDS011;3016;50.308;8.258;2023-01-09T09:25:30;17.07;;;1.23;;
5979;SDS011;3016;50.308;8.258;2023-01-09T09:28:32;15.77;;;1.57;;
5979;SDS011;3016;50.308;8.258;2023-01-09T09:31:35;17.30;;;1.70;;
5979;SDS011;3016;50.308;8.258;2023-01-09T09:34:37;18.67;;;1.70;;
5979;SDS011;3016;50.308;8.258;2023-01-09T09:37:39;15.63;;;1.60;;
5979;SDS011;3016;50.308;8.258;2023-01-09T09:48:37;16.27;;;1.30;;
5979;SDS011;3016;50.308;8.258;2023-01-09T09:52:07;17.30;;;1.90;;
5979;SDS011;3016;50.308;8.258;2023-01-09T09:55:36;17.77;;;1.97;;
5979;SDS011;3016;50.308;8.258;2023-01-09T09:58:40;17.87;;;2.67;;
5979;SDS011;3016;50.308;8.258;2023-01-09T10:01:52;17.30;;;2.00;;
5979;SDS011;3016;50.308;8.258;2023-01-09T10:05:11;17.20;;;1.67;;
5979;SDS011;3016;50.308;8.258;2023-01-09T10:08:27;17.67;;;1.63;;
5979;SDS011;3016;50.308;8.258;2023-01-09T10:11:58;16.90;;;1.70;;
5979;SDS011;3016;50.308;8.258;2023-01-09T10:15:39;17.17;;;2.00;;
5979;SDS011;3016;50.308;8.258;2023-01-09T10:26:00;17.00;;;1.73;;
5979;SDS011;3016;50.308;8.258;2023-01-09T10:40:36;16.23;;;1.40;;
5979;SDS011;3016;50.308;8.258;2023-01-09T10:47:49;16.73;;;1.70;;
5979;SDS011;3016;50.308;8.258;2023-01-09T10:51:00;17.97;;;1.90;;
5979;SDS011;3016;50.308;8.258;2023-01-09T10:54:27;19.30;;;1.73;;
5979;SDS011;3016;50.308;8.258;2023-01-09T10:57:41;19.00;;;2.27;;
5979;SDS011;3016;50.308;8.258;2023-01-09T11:00:45;17.83;;;1.60;;
5979;SDS011;3016;50.308;8.258;2023-01-09T11:03:49;16.10;;;1.50;;
5979;SDS011;3016;50.308;8.258;2023-01-09T11:10:06;16.93;;;1.93;;
5979;SDS011;3016;50.308;8.258;2023-01-09T11:13:18;16.23;;;1.53;;
5979;SDS011;3016;50.308;8.258;2023-01-09T11:17:01;17.30;;;1.27;;
5979;SDS011;3016;50.308;8.258;2023-01-09T11:23:28;16.53;;;1.30;;
5979;SDS011;3016;50.308;8.258;2023-01-09T11:26:42;21.73;;;1.77;;
5979;SDS011;3016;50.308;8.258;2023-01-09T11:29:45;18.67;;;2.17;;
5979;SDS011;3016;50.308;8.258;2023-01-09T11:37:27;16.53;;;1.30;;
5979;SDS011;3016;50.308;8.258;2023-01-09T11:43:51;17.67;;;1.30;;
5979;SDS011;3016;50.308;8.258;2023-01-09T11:46:57;16.57;;;1.40;;
5979;SDS011;3016;50.308;8.258;2023-01-09T11:50:07;17.70;;;1.73;;
5979;SDS011;3016;50.308;8.258;2023-01-09T12:00:23;23.70;;;1.70;;
5979;SDS011;3016;50.308;8.258;2023-01-09T12:03:39;17.60;;;1.70;;
5979;SDS011;3016;50.308;8.258;2023-01-09T12:17:42;18.20;;;2.07;;
5979;SDS011;3016;50.308;8.258;2023-01-09T12:32:24;16.87;;;1.30;;
5979;SDS011;3016;50.308;8.258;2023-01-09T12:54:23;18.10;;;1.40;;
5979;SDS011;3016;50.308;8.258;2023-01-09T12:57:50;16.90;;;1.30;;
5979;SDS011;3016;50.308;8.258;2023-01-09T13:00:56;17.07;;;1.30;;
5979;SDS011;3016;50.308;8.258;2023-01-09T13:04:18;19.37;;;1.93;;
5979;SDS011;3016;50.308;8.258;2023-01-09T13:07:29;17.37;;;1.37;;
5979;SDS011;3016;50.308;8.258;2023-01-09T13:10:42;23.60;;;3.10;;
5979;SDS011;3016;50.308;8.258;2023-01-09T13:13:54;19.07;;;2.67;;
5979;SDS011;3016;50.308;8.258;2023-01-09T13:17:13;17.67;;;1.57;;
5979;SDS011;3016;50.308;8.258;2023-01-09T13:20:22;18.57;;;2.10;;
5979;SDS011;3016;50.308;8.258;2023-01-09T13:27:18;17.83;;;2.07;;
5979;SDS011;3016;50.308;8.258;2023-01-09T13:34:22;19.30;;;1.70;;
5979;SDS011;3016;50.308;8.258;2023-01-09T13:37:27;17.60;;;1.30;;
5979;SDS011;3016;50.308;8.258;2023-01-09T13:40:34;17.03;;;1.40;;
5979;SDS011;3016;50.308;8.258;2023-01-09T13:43:54;18.93;;;1.80;;
5979;SDS011;3016;50.308;8.258;2023-01-09T13:47:19;18.70;;;2.43;;
5979;SDS011;3016;50.308;8.258;2023-01-09T13:50:24;17.53;;;1.60;;
5979;SDS011;3016;50.308;8.258;2023-01-09T13:56:27;19.17;;;1.60;;
5979;SDS011;3016;50.308;8.258;2023-01-09T13:59:27;17.23;;;1.50;;
5979;SDS011;3016;50.308;8.258;2023-01-09T14:09:11;17.00;;;1.40;;
5979;SDS011;3016;50.308;8.258;2023-01-09T14:12:20;17.43;;;1.50;;
5979;SDS011;3016;50.308;8.258;2023-01-09T14:15:31;19.63;;;2.63;;
5979;SDS011;3016;50.308;8.258;2023-01-09T14:18:48;18.27;;;2.70;;
5979;SDS011;3016;50.308;8.258;2023-01-09T14:21:52;20.50;;;1.90;;
5979;SDS011;3016;50.308;8.258;2023-01-09T14:24:59;21.03;;;2.17;;
5979;SDS011;3016;50.308;8.258;2023-01-09T14:28:17;18.47;;;1.90;;
5979;SDS011;3016;50.308;8.258;2023-01-09T14:31:27;17.83;;;1.63;;
5979;SDS011;3016;50.308;8.258;2023-01-09T14:34:34;17.90;;;1.90;;
5979;SDS011;3016;50.308;8.258;2023-01-09T14:37:39;18.53;;;2.97;;
5979;SDS011;3016;50.308;8.258;2023-01-09T14:40:49;17.80;;;2.27;;
5979;SDS011;3016;50.308;8.258;2023-01-09T14:45:03;19.80;;;2.53;;
5979;SDS011;3016;50.308;8.258;2023-01-09T14:48:15;19.47;;;4.23;;
5979;SDS011;3016;50.308;8.258;2023-01-09T14:51:17;18.93;;;2.30;;
5979;SDS011;3016;50.308;8.258;2023-01-09T14:54:32;20.63;;;2.30;;
5979;SDS011;3016;50.308;8.258;2023-01-09T14:57:37;17.93;;;2.17;;
5979;SDS011;3016;50.308;8.258;2023-01-09T15:00:44;19.60;;;3.63;;
5979;SDS011;3016;50.308;8.258;2023-01-09T15:04:01;17.67;;;3.10;;
5979;SDS011;3016;50.308;8.258;2023-01-09T15:07:18;21.57;;;2.20;;
5979;SDS011;3016;50.308;8.258;2023-01-09T15:10:22;21.47;;;3.50;;
5979;SDS011;3016;50.308;8.258;2023-01-09T15:13:31;18.47;;;2.30;;
5979;SDS011;3016;50.308;8.258;2023-01-09T15:16:35;19.27;;;2.90;;
5979;SDS011;3016;50.308;8.258;2023-01-09T15:19:36;20.83;;;2.73;;
5979;SDS011;3016;50.308;8.258;2023-01-09T15:22:37;19.07;;;2.53;;
5979;SDS011;3016;50.308;8.258;2023-01-09T15:25:39;19.67;;;2.80;;
5979;SDS011;3016;50.308;8.258;2023-01-09T15:28:41;18.60;;;2.70;;
5979;SDS011;3016;50.308;8.258;2023-01-09T15:31:44;17.73;;;2.60;;
5979;SDS011;3016;50.308;8.258;2023-01-09T15:34:48;18.67;;;2.50;;
5979;SDS011;3016;50.308;8.258;2023-01-09T15:37:53;19.77;;;2.57;;
5979;SDS011;3016;50.308;8.258;2023-01-09T15:40:59;21.83;;;2.90;;
5979;SDS011;3016;50.308;8.258;2023-01-09T15:44:11;21.40;;;2.53;;
5979;SDS011;3016;50.308;8.258;2023-01-09T15:47:23;18.17;;;3.00;;
5979;SDS011;3016;50.308;8.258;2023-01-09T15:50:28;16.80;;;1.83;;
5979;SDS011;3016;50.308;8.258;2023-01-09T15:53:30;18.30;;;1.97;;
5979;SDS011;3016;50.308;8.258;2023-01-09T15:56:32;17.47;;;2.03;;
5979;SDS011;3016;50.308;8.258;2023-01-09T15:59:34;19.40;;;2.20;;
5979;SDS011;3016;50.308;8.258;2023-01-09T16:02:36;18.03;;;1.90;;
5979;SDS011;3016;50.308;8.258;2023-01-09T16:06:07;16.80;;;1.70;;
5979;SDS011;3016;50.308;8.258;2023-01-09T16:12:24;21.60;;;1.40;;
5979;SDS011;3016;50.308;8.258;2023-01-09T16:15:28;17.00;;;2.13;;
5979;SDS011;3016;50.308;8.258;2023-01-09T16:18:34;16.33;;;1.40;;
5979;SDS011;3016;50.308;8.258;2023-01-09T16:21:37;19.23;;;2.33;;
5979;SDS011;3016;50.308;8.258;2023-01-09T16:24:39;16.40;;;1.60;;
5979;SDS011;3016;50.308;8.258;2023-01-09T16:27:41;15.00;;;1.70;;
5979;SDS011;3016;50.308;8.258;2023-01-09T16:34:28;16.87;;;3.10;;
5979;SDS011;3016;50.308;8.258;2023-01-09T16:37:30;17.07;;;2.33;;
5979;SDS011;3016;50.308;8.258;2023-01-09T16:40:31;15.50;;;2.30;;
5979;SDS011;3016;50.308;8.258;2023-01-09T16:43:35;15.97;;;2.47;;
5979;SDS011;3016;50.308;8.258;2023-01-09T16:46:39;17.60;;;3.70;;
5979;SDS011;3016;50.308;8.258;2023-01-09T16:49:42;16.80;;;2.97;;
5979;SDS011;3016;50.308;8.258;2023-01-09T16:52:48;16.10;;;2.70;;
5979;SDS011;3016;50.308;8.258;2023-01-09T16:55:49;16.87;;;2.57;;
5979;SDS011;3016;50.308;8.258;2023-01-09T16:58:53;18.07;;;3.33;;
5979;SDS011;3016;50.308;8.258;2023-01-09T17:01:54;15.20;;;1.80;;
5979;SDS011;3016;50.308;8.258;2023-01-09T17:04:55;16.90;;;3.33;;
5979;SDS011;3016;50.308;8.258;2023-01-09T17:07:59;20.43;;;3.80;;
5979;SDS011;3016;50.308;8.258;2023-01-09T17:11:00;18.00;;;3.50;;
5979;SDS011;3016;50.308;8.258;2023-01-09T17:14:03;16.23;;;2.13;;
5979;SDS011;3016;50.308;8.258;2023-01-09T17:17:14;18.43;;;2.90;;
5979;SDS011;3016;50.308;8.258;2023-01-09T17:20:17;18.90;;;4.10;;
5979;SDS011;3016;50.308;8.258;2023-01-09T17:23:21;18.17;;;2.53;;
5979;SDS011;3016;50.308;8.258;2023-01-09T17:26:24;17.70;;;2.23;;
5979;SDS011;3016;50.308;8.258;2023-01-09T17:29:45;16.20;;;1.90;;
5979;SDS011;3016;50.308;8.258;2023-01-09T17:32:49;16.33;;;1.80;;
5979;SDS011;3016;50.308;8.258;2023-01-09T17:35:50;17.90;;;2.50;;
5979;SDS011;3016;50.308;8.258;2023-01-09T17:38:51;15.80;;;1.77;;
5979;SDS011;3016;50.308;8.258;2023-01-09T17:41:53;16.37;;;1.60;;
5979;SDS011;3016;50.308;8.258;2023-01-09T17:44:56;15.90;;;2.00;;
5979;SDS011;3016;50.308;8.258;2023-01-09T17:47:58;16.03;;;1.80;;
5979;SDS011;3016;50.308;8.258;2023-01-09T17:50:59;16.60;;;2.57;;
5979;SDS011;3016;50.308;8.258;2023-01-09T17:57:13;17.47;;;2.40;;
5979;SDS011;3016;50.308;8.258;2023-01-09T18:00:27;16.93;;;2.57;;
5979;SDS011;3016;50.308;8.258;2023-01-09T18:03:38;17.43;;;2.63;;
5979;SDS011;3016;50.308;8.258;2023-01-09T18:06:39;16.47;;;2.20;;
5979;SDS011;3016;50.308;8.258;2023-01-09T18:12:57;16.70;;;2.10;;
5979;SDS011;3016;50.308;8.258;2023-01-09T18:16:02;16.80;;;2.23;;
5979;SDS011;3016;50.308;8.258;2023-01-09T18:19:03;15.80;;;1.70;;
5979;SDS011;3016;50.308;8.258;2023-01-09T18:22:08;21.70;;;4.90;;
5979;SDS011;3016;50.308;8.258;2023-01-09T18:25:17;31.50;;;8.40;;
5979;SDS011;3016;50.308;8.258;2023-01-09T18:28:29;28.10;;;7.80;;
5979;SDS011;3016;50.308;8.258;2023-01-09T18:31:31;17.10;;;2.40;;
5979;SDS011;3016;50.308;8.258;2023-01-09T18:34:32;16.90;;;2.20;;
5979;SDS011;3016;50.308;8.258;2023-01-09T18:37:36;17.40;;;3.20;;
5979;SDS011;3016;50.308;8.258;2023-01-09T18:40:39;17.73;;;3.20;;
5979;SDS011;3016;50.308;8.258;2023-01-09T18:43:50;17.73;;;3.23;;
5979;SDS011;3016;50.308;8.258;2023-01-09T18:47:32;17.70;;;2.70;;
5979;SDS011;3016;50.308;8.258;2023-01-09T18:50:33;18.07;;;2.90;;
5979;SDS011;3016;50.308;8.258;2023-01-09T18:53:35;19.83;;;3.10;;
5979;SDS011;3016;50.308;8.258;2023-01-09T18:56:36;17.30;;;1.90;;
5979;SDS011;3016;50.308;8.258;2023-01-09T18:59:37;16.57;;;2.47;;
5979;SDS011;3016;50.308;8.258;2023-01-09T19:02:40;17.60;;;2.67;;
5979;SDS011;3016;50.308;8.258;2023-01-09T19:05:41;16.83;;;2.00;;
5979;SDS011;3016;50.308;8.258;2023-01-09T19:08:42;17.40;;;2.30;;
5979;SDS011;3016;50.308;8.258;2023-01-09T19:11:44;17.03;;;2.80;;
5979;SDS011;3016;50.308;8.258;2023-01-09T19:14:45;16.50;;;2.23;;
5979;SDS011;3016;50.308;8.258;2023-01-09T19:17:46;16.40;;;1.97;;
5979;SDS011;3016;50.308;8.258;2023-01-09T19:20:50;18.27;;;2.33;;
5979;SDS011;3016;50.308;8.258;2023-01-09T19:23:57;16.20;;;1.77;;
5979;SDS011;3016;50.308;8.258;2023-01-09T19:27:04;16.70;;;1.87;;
5979;SDS011;3016;50.308;8.258;2023-01-09T19:30:05;17.10;;;1.80;;
5979;SDS011;3016;50.308;8.258;2023-01-09T19:33:11;19.40;;;3.70;;
5979;SDS011;3016;50.308;8.258;2023-01-09T19:36:15;23.97;;;4.83;;
5979;SDS011;3016;50.308;8.258;2023-01-09T19:39:16;18.07;;;3.10;;
5979;SDS011;3016;50.308;8.258;2023-01-09T19:42:17;18.80;;;2.70;;
5979;SDS011;3016;50.308;8.258;2023-01-09T19:45:20;20.40;;;2.30;;
5979;SDS011;3016;50.308;8.258;2023-01-09T19:48:21;22.77;;;4.73;;
5979;SDS011;3016;50.308;8.258;2023-01-09T19:51:25;21.30;;;4.50;;
5979;SDS011;3016;50.308;8.258;2023-01-09T19:54:26;19.73;;;4.23;;
5979;SDS011;3016;50.308;8.258;2023-01-09T19:57:36;18.27;;;2.90;;
5979;SDS011;3016;50.308;8.258;2023-01-09T20:00:37;17.07;;;3.03;;
5979;SDS011;3016;50.308;8.258;2023-01-09T20:03:38;22.20;;;3.20;;
5979;SDS011;3016;50.308;8.258;2023-01-09T20:06:44;20.43;;;2.53;;
5979;SDS011;3016;50.308;8.258;2023-01-09T20:09:47;17.50;;;2.47;;
5979;SDS011;3016;50.308;8.258;2023-01-09T20:12:48;16.70;;;2.27;;
5979;SDS011;3016;50.308;8.258;2023-01-09T20:15:49;20.30;;;2.40;;
5979;SDS011;3016;50.308;8.258;2023-01-09T20:18:50;17.80;;;2.40;;
5979;SDS011;3016;50.308;8.258;2023-01-09T20:21:56;20.03;;;2.90;;
5979;SDS011;3016;50.308;8.258;2023-01-09T20:24:57;18.83;;;2.23;;
5979;SDS011;3016;50.308;8.258;2023-01-09T20:27:58;20.33;;;2.60;;
5979;SDS011;3016;50.308;8.258;2023-01-09T20:30:59;16.63;;;2.60;;
5979;SDS011;3016;50.308;8.258;2023-01-09T20:33:59;19.43;;;3.83;;
5979;SDS011;3016;50.308;8.258;2023-01-09T20:37:00;20.00;;;3.87;;
5979;SDS011;3016;50.308;8.258;2023-01-09T20:40:01;35.53;;;11.30;;
5979;SDS011;3016;50.308;8.258;2023-01-09T20:43:03;40.27;;;15.27;;
5979;SDS011;3016;50.308;8.258;2023-01-09T20:46:05;27.30;;;7.93;;
5979;SDS011;3016;50.308;8.258;2023-01-09T20:49:08;29.80;;;8.17;;
5979;SDS011;3016;50.308;8.258;2023-01-09T20:52:11;25.03;;;6.90;;
5979;SDS011;3016;50.308;8.258;2023-01-09T20:55:12;21.57;;;4.33;;
5979;SDS011;3016;50.308;8.258;2023-01-09T20:58:13;16.70;;;2.63;;
5979;SDS011;3016;50.308;8.258;2023-01-09T21:01:14;17.43;;;2.40;;
5979;SDS011;3016;50.308;8.258;2023-01-09T21:04:14;59.87;;;21.13;;
5979;SDS011;3016;50.308;8.258;2023-01-09T21:07:16;23.63;;;5.40;;
5979;SDS011;3016;50.308;8.258;2023-01-09T21:10:18;24.03;;;3.87;;
5979;SDS011;3016;50.308;8.258;2023-01-09T21:13:18;19.97;;;3.67;;
5979;SDS011;3016;50.308;8.258;2023-01-09T21:16:20;18.90;;;4.27;;
5979;SDS011;3016;50.308;8.258;2023-01-09T21:19:23;15.90;;;2.10;;
5979;SDS011;3016;50.308;8.258;2023-01-09T21:22:23;17.27;;;2.50;;
5979;SDS011;3016;50.308;8.258;2023-01-09T21:25:24;17.23;;;1.73;;
5979;SDS011;3016;50.308;8.258;2023-01-09T21:28:25;23.33;;;3.00;;
5979;SDS011;3016;50.308;8.258;2023-01-09T21:31:28;18.03;;;2.33;;